Decoded Metar for KBFW (SILVER BAY in MN, USA) (IATA:BFW) | Meteo·Mobile Aviation Weather
aviador You're here:

KBFW Decoded Metar

SILVER BAY in MN, USA
Report Time2019-01-17 00:36:00
UTC Time2019-01-17 00:58:41
Flight Rules vfr VFR
WindCalm
Visibility9999 m
Phenomena:N/A
Clouds:N/A
Expected CloudBase > 800 ft AGL from Temp-Dew spread
CeilingNone
Temp-18°C (ISA -31)
Dew Point-20°C (84% RH)
AAT-21.6°C
QNH1024 hPa
Density Alt-3,192 ft
Elevation1,086 ft
Report Wrong Elevation
Raw Report
KBFW 170036Z AUTO 00000KT 10SM CLR M18/M20 A3025 RMK AO2=

Extra information for KBFW:More info

Metar Taf Metar & Taf Last 4 Metars F.Rules Stats Wind Profile Meteogram Temp Stats Airport Information Weather charts Add Link Nearby VenuesMetar ALERT Operation Metar Decoded Social comments

AIRNAV info for KBFW